Time;durP1;ratioP1;P1;durP2;ratioP2;P2;SDS_P1;SDS_P2;PMS_P1;PMS_P2;Temp;Humidity;BMP_temperature;BMP_pressure;BME280_temperature;BME280_humidity;BME280_pressure;Samples;Min_cycle;Max_cycle;Signal;HPM_P1;HPM_P2
2021/05/04 00:05:38;;;;;;;20.60;8.60;;;3.40;99.90;;;;;;21077553;28;20094;-45
2021/05/04 00:15:39;;;;;;;11.80;7.53;;;3.30;99.90;;;;;;21076659;28;20036;-44
2021/05/04 00:25:41;;;;;;;10.48;7.28;;;3.60;99.90;;;;;;21076023;28;20485;-47
2021/05/04 00:35:46;;;;;;;12.43;8.68;;;3.60;99.90;;;;;;21075427;28;20393;-44
2021/05/04 00:45:48;;;;;;;15.88;9.18;;;3.30;99.90;;;;;;21074771;28;20028;-44
2021/05/04 00:55:51;;;;;;;15.77;9.95;;;3.20;99.90;;;;;;21073594;28;20490;-49
2021/05/04 01:05:53;;;;;;;15.60;9.30;;;3.10;99.90;;;;;;21073575;28;20039;-45
2021/05/04 01:15:55;;;;;;;11.50;7.85;;;3.20;99.90;;;;;;21073092;28;20040;-44
2021/05/04 01:25:57;;;;;;;12.27;7.38;;;3.60;99.90;;;;;;21072826;28;20036;-44
2021/05/04 01:36:00;;;;;;;14.27;7.82;;;3.80;99.90;;;;;;21072341;28;20312;-46
2021/05/04 01:46:02;;;;;;;14.90;9.23;;;3.70;99.90;;;;;;21071985;28;20082;-45
2021/05/04 01:56:04;;;;;;;18.00;11.60;;;3.20;99.90;;;;;;21071036;28;20065;-44
2021/05/04 02:06:06;;;;;;;18.15;10.35;;;2.80;99.90;;;;;;21081286;28;20032;-47
2021/05/04 02:16:08;;;;;;;21.70;13.18;;;2.60;99.90;;;;;;21086438;28;20040;-45
2021/05/04 02:26:11;;;;;;;19.75;11.48;;;2.60;99.90;;;;;;21084670;28;20093;-44
2021/05/04 02:36:18;;;;;;;21.45;12.25;;;2.60;99.90;;;;;;21085015;28;20036;-46
2021/05/04 02:46:19;;;;;;;21.48;11.45;;;2.60;99.90;;;;;;21084021;28;20431;-44
2021/05/04 02:56:21;;;;;;;23.27;13.10;;;2.40;99.90;;;;;;21083167;28;20086;-44
2021/05/04 03:06:23;;;;;;;22.73;13.43;;;2.40;99.90;;;;;;21082555;28;20058;-44
2021/05/04 03:16:26;;;;;;;20.05;12.88;;;2.60;99.90;;;;;;21081200;28;20370;-46
2021/05/04 03:26:27;;;;;;;22.67;13.75;;;2.50;99.90;;;;;;21081287;28;20040;-45
2021/05/04 03:36:30;;;;;;;23.90;14.35;;;2.20;99.90;;;;;;21080105;28;20432;-44
2021/05/04 03:46:31;;;;;;;24.60;15.38;;;2.00;99.90;;;;;;21079253;28;20090;-44
2021/05/04 03:56:33;;;;;;;26.70;16.58;;;2.00;99.90;;;;;;21078532;28;20105;-44
2021/05/04 04:06:35;;;;;;;24.00;14.07;;;2.00;99.90;;;;;;21077613;28;20070;-45
2021/05/04 04:16:37;;;;;;;24.33;13.82;;;2.00;99.90;;;;;;21076773;28;20036;-44
2021/05/04 04:26:38;;;;;;;25.52;14.43;;;2.10;99.90;;;;;;21075072;28;20040;-45
2021/05/04 04:36:40;;;;;;;23.08;12.98;;;2.20;99.90;;;;;;21075805;28;20089;-48
2021/05/04 04:46:44;;;;;;;24.90;14.85;;;2.20;99.90;;;;;;21075007;28;20036;-44
2021/05/04 04:56:45;;;;;;;25.92;13.48;;;2.30;99.90;;;;;;21074014;28;20101;-44
2021/05/04 05:06:47;;;;;;;25.88;13.00;;;2.50;99.90;;;;;;21073724;28;20040;-47
2021/05/04 05:16:49;;;;;;;19.63;13.40;;;2.90;99.90;;;;;;21073170;28;20279;-45
2021/05/04 05:26:52;;;;;;;28.30;14.55;;;3.60;99.90;;;;;;21072951;28;20024;-46
2021/05/04 05:36:54;;;;;;;24.35;13.70;;;4.40;99.90;;;;;;21076073;28;20397;-51
2021/05/04 05:46:56;;;;;;;18.17;11.02;;;5.50;99.90;;;;;;21089117;28;20036;-45
2021/05/04 05:56:58;;;;;;;17.17;9.95;;;5.90;99.90;;;;;;21087592;28;20086;-45
2021/05/04 06:07:00;;;;;;;13.82;9.02;;;6.80;99.90;;;;;;21087321;28;20082;-45
2021/05/04 06:17:02;;;;;;;12.27;7.95;;;8.00;99.90;;;;;;21086638;28;20394;-45
2021/05/04 06:27:06;;;;;;;10.45;6.80;;;9.30;99.90;;;;;;21085860;28;20482;-45
2021/05/04 06:37:07;;;;;;;11.60;6.57;;;9.80;99.90;;;;;;21085063;28;20032;-45
2021/05/04 06:47:09;;;;;;;12.43;5.68;;;9.90;99.90;;;;;;21083207;28;20507;-48
2021/05/04 06:57:12;;;;;;;7.95;5.22;;;10.20;99.90;;;;;;21083026;28;20105;-46
2021/05/04 07:07:13;;;;;;;8.25;5.32;;;10.50;99.90;;;;;;21082809;28;20093;-46
2021/05/04 07:17:15;;;;;;;9.85;6.15;;;12.40;99.90;;;;;;21081822;28;20066;-45
2021/05/04 07:27:17;;;;;;;8.20;5.15;;;11.70;99.90;;;;;;21081186;28;20452;-46
2021/05/04 07:37:19;;;;;;;12.30;4.95;;;11.50;99.90;;;;;;21080341;28;20040;-46
2021/05/04 07:47:21;;;;;;;8.70;4.20;;;11.80;99.90;;;;;;21079495;28;20435;-46
2021/05/04 07:57:23;;;;;;;6.97;4.20;;;12.90;99.90;;;;;;21078734;28;20081;-51
2021/05/04 08:07:25;;;;;;;7.10;3.90;;;14.10;99.90;;;;;;21077629;28;20505;-47
2021/05/04 08:17:29;;;;;;;6.10;3.80;;;15.00;99.90;;;;;;21077051;28;20036;-47
2021/05/04 08:27:31;;;;;;;5.75;4.00;;;16.20;99.90;;;;;;21076467;28;20093;-50
2021/05/04 08:37:34;;;;;;;6.70;3.53;;;17.00;99.90;;;;;;21077056;28;20155;-46
2021/05/04 08:47:37;;;;;;;8.75;4.00;;;16.90;99.90;;;;;;21075106;28;20036;-46
2021/05/04 08:57:39;;;;;;;6.43;3.15;;;17.10;98.90;;;;;;21074031;28;20435;-47
2021/05/04 09:07:41;;;;;;;4.35;3.80;;;17.30;97.20;;;;;;21073708;28;20096;-47
2021/05/04 09:17:48;;;;;;;6.53;4.00;;;16.00;96.20;;;;;;21072648;28;20085;-45
2021/05/04 09:28:01;;;;;;;6.20;3.92;;;14.40;99.90;;;;;;21072866;28;20036;-45
2021/05/04 09:38:04;;;;;;;6.05;4.30;;;14.00;99.90;;;;;;21072725;28;20382;-46
2021/05/04 09:48:44;;;;;;;7.88;4.45;;;14.10;99.90;;;;;;21072120;28;20066;-46
2021/05/04 09:58:48;;;;;;;8.02;3.72;;;14.90;99.90;;;;;;21068421;28;20091;-48
2021/05/04 10:08:51;;;;;;;5.38;3.70;;;15.60;98.70;;;;;;21071219;28;20036;-49
2021/05/04 10:18:58;;;;;;;7.60;4.45;;;16.20;99.90;;;;;;21070831;28;20405;-50
2021/05/04 10:29:04;;;;;;;8.95;5.78;;;16.30;99.20;;;;;;21083067;28;20035;-49
2021/05/04 10:39:06;;;;;;;10.48;5.40;;;16.70;99.50;;;;;;21084982;28;20036;-45
2021/05/04 10:49:16;;;;;;;9.15;5.90;;;17.10;97.10;;;;;;21084348;28;20503;-50
2021/05/04 10:59:23;;;;;;;7.97;4.93;;;17.10;97.30;;;;;;21083343;28;20044;-47
2021/05/04 11:09:25;;;;;;;9.95;5.80;;;17.20;94.70;;;;;;21082685;28;20040;-46
2021/05/04 11:19:30;;;;;;;10.93;7.05;;;16.70;98.00;;;;;;21081894;28;20032;-49
2021/05/04 11:29:32;;;;;;;11.30;6.45;;;15.80;99.40;;;;;;21081127;28;20436;-46
2021/05/04 11:39:34;;;;;;;11.57;7.10;;;14.70;99.30;;;;;;21078349;28;20108;-45
2021/05/04 11:49:37;;;;;;;8.63;7.22;;;13.80;99.40;;;;;;21078198;28;20065;-47
2021/05/04 11:59:41;;;;;;;11.80;7.20;;;14.00;99.90;;;;;;21078769;28;20098;-46
2021/05/04 12:09:42;;;;;;;12.85;7.40;;;13.70;99.90;;;;;;21078132;28;20544;-46
2021/05/04 12:19:44;;;;;;;11.13;7.18;;;14.00;99.90;;;;;;21077087;28;20062;-46
2021/05/04 12:29:49;;;;;;;10.63;6.60;;;13.30;99.90;;;;;;21075737;28;20078;-46
2021/05/04 12:39:50;;;;;;;10.15;6.43;;;13.10;99.90;;;;;;21075524;28;20379;-46
2021/05/04 12:49:52;;;;;;;9.93;6.78;;;13.30;99.90;;;;;;21074269;28;20093;-49
2021/05/04 12:59:55;;;;;;;11.73;6.97;;;13.30;99.80;;;;;;21074136;28;20039;-45
2021/05/04 13:10:12;;;;;;;11.13;7.25;;;13.30;98.90;;;;;;21073771;28;20040;-45
2021/05/04 13:30:26;;;;;;;9.15;6.90;;;12.50;99.90;;;;;;21073048;28;20401;-45
2021/05/04 13:50:48;;;;;;;9.50;4.60;;;11.80;98.70;;;;;;21072015;28;20032;-48
2021/05/04 14:01:23;;;;;;;6.53;3.97;;;12.20;98.20;;;;;;21079073;28;20316;-45
2021/05/04 14:32:00;;;;;;;4.65;3.08;;;14.10;96.60;;;;;;21085625;28;20432;-45
2021/05/04 15:02:40;;;;;;;8.57;5.15;;;13.50;94.80;;;;;;21083390;28;20048;-46
2021/05/04 15:12:43;;;;;;;7.82;5.18;;;12.80;97.20;;;;;;21081608;28;20482;-45
2021/05/04 15:22:47;;;;;;;8.45;5.53;;;12.90;97.00;;;;;;21081311;28;20036;-47
2021/05/04 15:42:51;;;;;;;6.85;4.80;;;13.00;98.60;;;;;;21079559;28;20062;-45
2021/05/04 16:06:15;;;;;;;8.43;5.30;;;12.00;96.70;;;;;;21061462;28;20052;-45
2021/05/04 16:13:47;;;;;;;9.98;6.40;;;11.30;98.80;;;;;;21071698;28;20040;-45
2021/05/04 16:33:57;;;;;;;8.30;5.45;;;10.70;99.60;;;;;;21075600;28;20112;-46
2021/05/04 16:43:59;;;;;;;10.10;6.00;;;10.50;98.80;;;;;;21074872;28;20141;-45
2021/05/04 16:54:01;;;;;;;9.50;5.88;;;10.60;99.40;;;;;;21072694;28;20481;-45
2021/05/04 17:04:03;;;;;;;8.80;5.75;;;10.60;99.90;;;;;;21073206;28;20044;-45
2021/05/04 17:14:05;;;;;;;9.70;6.15;;;10.40;99.90;;;;;;21073071;28;20040;-44
2021/05/04 17:24:11;;;;;;;10.65;6.97;;;10.10;99.90;;;;;;21072297;28;20040;-45
2021/05/04 17:34:14;;;;;;;10.85;7.68;;;9.70;99.90;;;;;;21077594;28;20098;-46
2021/05/04 17:44:25;;;;;;;10.85;7.30;;;9.30;99.90;;;;;;21088796;28;20044;-45
2021/05/04 17:54:27;;;;;;;13.93;8.05;;;9.00;99.90;;;;;;21088070;28;20093;-44
2021/05/04 18:04:29;;;;;;;14.57;7.78;;;8.80;99.90;;;;;;21086072;28;20052;-48
2021/05/04 18:14:50;;;;;;;14.88;8.48;;;8.20;99.90;;;;;;21086151;28;20048;-44
2021/05/04 18:24:51;;;;;;;;;;;7.80;99.90;;;;;;21086078;28;20044;-44
2021/05/04 18:35:10;;;;;;;15.63;9.75;;;7.50;99.90;;;;;;21084281;28;19969;-47
2021/05/04 20:08:00;;;;;;;12.90;10.00;;;7.60;99.90;;;;;;21077167;28;20070;-45
2021/05/04 20:18:09;;;;;;;15.52;9.95;;;7.60;99.90;;;;;;21076433;28;20040;-44
2021/05/04 20:28:11;;;;;;;13.85;9.70;;;7.50;99.90;;;;;;21075474;28;20124;-45
2021/05/04 20:38:13;;;;;;;16.88;9.82;;;7.20;99.90;;;;;;21074900;28;20089;-44
2021/05/04 20:48:15;;;;;;;14.50;10.48;;;6.90;99.90;;;;;;21074104;28;20036;-46
2021/05/04 20:58:19;;;;;;;12.77;9.27;;;7.10;99.90;;;;;;21073345;28;20093;-45
2021/05/04 21:08:26;;;;;;;14.32;10.20;;;7.00;99.90;;;;;;21072106;28;20032;-45
2021/05/04 21:18:29;;;;;;;19.38;10.00;;;6.80;99.90;;;;;;21072484;28;20036;-48
2021/05/04 21:28:31;;;;;;;15.73;9.77;;;6.90;99.90;;;;;;21072065;28;20031;-45
2021/05/04 21:38:33;;;;;;;12.48;8.90;;;6.60;99.90;;;;;;21071578;28;20048;-44
2021/05/04 21:48:35;;;;;;;15.93;8.57;;;6.40;99.90;;;;;;21071554;28;20044;-44
2021/05/04 21:58:36;;;;;;;12.65;7.70;;;6.50;99.90;;;;;;21071626;28;20040;-44
2021/05/04 22:08:38;;;;;;;11.30;6.90;;;6.90;99.90;;;;;;21070797;28;20036;-45
2021/05/04 22:39:17;;;;;;;8.80;5.65;;;6.70;99.90;;;;;;21084641;28;20044;-44
2021/05/04 23:20:21;;;;;;;11.50;5.70;;;6.80;99.90;;;;;;21081381;28;20403;-44
2021/05/04 23:30:23;;;;;;;9.13;5.43;;;6.80;99.90;;;;;;21080121;28;20102;-44
2021/05/04 23:40:25;;;;;;;14.75;7.65;;;6.30;99.90;;;;;;21079791;28;20036;-45
2021/05/04 23:50:27;;;;;;;11.73;6.78;;;5.70;99.90;;;;;;21078711;28;20032;-44
